createdAt,value
2022-11-05T00:00:08.587Z,100407.47
2022-11-05T00:02:29.206Z,100405.91
2022-11-05T00:04:49.853Z,100402.56
2022-11-05T00:07:10.365Z,100412.41
2022-11-05T00:09:33.231Z,100414.25
2022-11-05T00:11:54.661Z,100412.50
2022-11-05T00:14:14.827Z,100408.22
2022-11-05T00:16:34.856Z,100410.16
2022-11-05T00:18:38.058Z,100419.03
2022-11-05T00:20:40.946Z,100422.56
2022-11-05T00:23:01.400Z,100421.72
2022-11-05T00:25:14.607Z,100429.72
2022-11-05T00:27:17.561Z,100426.34
2022-11-05T00:29:21.267Z,100436.81
2022-11-05T00:31:24.330Z,100436.81
2022-11-05T00:33:27.378Z,100443.94
2022-11-05T00:35:30.533Z,100441.41
2022-11-05T00:37:33.593Z,100442.50
2022-11-05T00:39:36.581Z,100445.19
2022-11-05T00:41:40.972Z,100438.19
2022-11-05T00:44:01.879Z,100442.69
2022-11-05T00:46:04.999Z,100452.53
2022-11-05T00:48:25.883Z,100446.34
2022-11-05T00:50:29.669Z,100451.00
2022-11-05T00:52:49.875Z,100450.22
2022-11-05T00:54:52.822Z,100451.28
2022-11-05T00:57:01.951Z,100446.81
2022-11-05T00:59:07.433Z,100459.19
2022-11-05T01:01:11.543Z,100461.88
2022-11-05T01:03:16.375Z,100451.59
2022-11-05T01:05:19.465Z,100458.81
2022-11-05T01:07:22.431Z,100452.78
2022-11-05T01:09:26.424Z,100462.44
2022-11-05T01:11:35.244Z,100466.00
2022-11-05T01:13:43.280Z,100462.72
2022-11-05T01:15:46.878Z,100462.22
2022-11-05T01:17:50.208Z,100464.94
2022-11-05T01:19:53.184Z,100467.75
2022-11-05T01:21:56.121Z,100474.91
2022-11-05T01:23:59.042Z,100472.38
2022-11-05T01:26:01.923Z,100474.19
2022-11-05T01:28:05.285Z,100481.38
2022-11-05T01:30:10.953Z,100484.13
2022-11-05T01:32:13.871Z,100491.16
2022-11-05T01:34:16.900Z,100490.44
2022-11-05T01:36:20.000Z,100497.34
2022-11-05T01:38:22.929Z,100487.69
2022-11-05T01:40:26.033Z,100498.22
2022-11-05T01:42:29.644Z,100495.59
2022-11-05T01:44:53.854Z,100497.41
2022-11-05T01:46:58.172Z,100505.28
2022-11-05T01:49:06.573Z,100513.25
2022-11-05T01:51:12.978Z,100517.66
2022-11-05T01:53:21.700Z,100527.28
2022-11-05T01:55:27.097Z,100528.22
2022-11-05T01:57:30.463Z,100522.25
2022-11-05T01:59:36.667Z,100524.13
2022-11-05T02:01:39.773Z,100524.31
2022-11-05T02:03:44.662Z,100519.03
2022-11-05T02:05:49.095Z,100519.09
2022-11-05T02:07:52.485Z,100522.56
2022-11-05T02:09:58.474Z,100515.44
2022-11-05T02:12:01.441Z,100521.66
2022-11-05T02:14:05.316Z,100524.31
2022-11-05T02:16:14.343Z,100528.66
2022-11-05T02:18:23.861Z,100525.31
2022-11-05T02:20:34.631Z,100519.25
2022-11-05T02:23:00.963Z,100522.81
2022-11-05T02:25:27.483Z,100521.97
2022-11-05T02:27:55.728Z,100528.13
2022-11-05T02:30:07.777Z,100520.34
2022-11-05T02:32:19.287Z,100537.00
2022-11-05T02:34:27.267Z,100538.84
2022-11-05T02:36:37.783Z,100545.84
2022-11-05T02:38:43.799Z,100542.50
2022-11-05T02:40:51.303Z,100537.25
2022-11-05T02:42:59.404Z,100542.50
2022-11-05T02:45:07.213Z,100542.41
2022-11-05T02:47:18.266Z,100538.84
2022-11-05T02:49:29.284Z,100544.16
2022-11-05T02:51:35.446Z,100548.53
2022-11-05T02:53:42.928Z,100547.75
2022-11-05T02:55:48.934Z,100549.44
2022-11-05T02:57:51.824Z,100550.31
2022-11-05T03:00:02.060Z,100550.25
2022-11-05T03:02:05.511Z,100556.38
2022-11-05T03:04:12.245Z,100551.03
2022-11-05T03:06:41.182Z,100561.41
2022-11-05T03:09:05.753Z,100553.41
2022-11-05T03:11:13.422Z,100563.03
2022-11-05T03:13:20.426Z,100559.63
2022-11-05T03:15:33.101Z,100561.34
2022-11-05T03:17:42.369Z,100567.41
2022-11-05T03:19:50.334Z,100567.47
2022-11-05T03:21:55.153Z,100570.09
2022-11-05T03:24:00.423Z,100563.13
2022-11-05T03:26:07.424Z,100557.00
2022-11-05T03:28:11.782Z,100555.28
2022-11-05T03:30:16.208Z,100559.59
2022-11-05T03:32:22.464Z,100566.72
2022-11-05T03:34:28.825Z,100566.66
2022-11-05T03:36:37.705Z,100571.13
2022-11-05T03:38:42.174Z,100569.25
2022-11-05T03:40:46.943Z,100568.28
2022-11-05T03:42:51.740Z,100575.34
2022-11-05T03:44:58.624Z,100575.28
2022-11-05T03:47:04.269Z,100573.53
2022-11-05T03:49:09.661Z,100581.47
2022-11-05T03:51:17.354Z,100580.59
2022-11-05T03:53:25.436Z,100578.78
2022-11-05T03:55:34.010Z,100581.47
2022-11-05T03:57:39.779Z,100580.59
2022-11-05T03:59:44.255Z,100580.53
2022-11-05T04:01:48.524Z,100584.88
2022-11-05T04:03:51.523Z,100585.78
2022-11-05T04:08:45.802Z,100584.03
2022-11-05T04:11:06.496Z,100590.25
2022-11-05T04:13:25.988Z,100594.81
2022-11-05T04:15:29.773Z,100595.81
2022-11-05T04:17:31.750Z,100597.44
2022-11-05T04:19:52.566Z,100595.81
2022-11-05T04:22:12.787Z,100601.06
2022-11-05T04:24:17.773Z,100596.69
2022-11-05T04:26:23.296Z,100591.53
2022-11-05T04:28:46.463Z,100598.53
2022-11-05T04:30:48.609Z,100597.03
2022-11-05T04:33:03.294Z,100592.50
2022-11-05T04:35:06.795Z,100596.88
2022-11-05T04:37:09.675Z,100598.66
2022-11-05T04:39:12.596Z,100594.25
2022-11-05T04:41:18.159Z,100596.84
2022-11-05T04:43:21.592Z,100595.09
2022-11-05T04:45:25.303Z,100603.78
2022-11-05T04:47:28.571Z,100608.16
2022-11-05T04:49:31.550Z,100607.31
2022-11-05T04:51:34.650Z,100609.16
2022-11-05T04:53:37.851Z,100606.50
2022-11-05T04:55:40.782Z,100608.28
2022-11-05T04:57:45.233Z,100606.50
2022-11-05T04:59:49.485Z,100606.63
2022-11-05T05:01:52.925Z,100607.44
2022-11-05T05:03:56.136Z,100604.94
2022-11-05T05:06:03.757Z,100605.13
2022-11-05T05:08:07.265Z,100606.09
2022-11-05T05:10:11.114Z,100601.91
2022-11-05T05:12:14.044Z,100601.91
2022-11-05T05:14:18.492Z,100609.78
2022-11-05T05:16:22.948Z,100609.81
2022-11-05T05:18:26.922Z,100608.09
2022-11-05T05:20:47.395Z,100614.19
2022-11-05T05:22:53.884Z,100613.44
2022-11-05T05:24:56.846Z,100623.91
2022-11-05T05:26:59.737Z,100615.25
2022-11-05T05:29:02.803Z,100614.34
2022-11-05T05:31:07.295Z,100616.97
2022-11-05T05:33:10.950Z,100621.34
2022-11-05T05:35:14.088Z,100623.94
2022-11-05T05:37:17.105Z,100628.31
2022-11-05T05:39:20.183Z,100634.47
2022-11-05T05:41:23.388Z,100631.03
2022-11-05T05:43:26.512Z,100638.97
2022-11-05T05:45:29.390Z,100639.88
2022-11-05T05:47:34.006Z,100638.16
2022-11-05T05:49:37.075Z,100637.25
2022-11-05T05:51:40.217Z,100642.44
2022-11-05T05:53:43.295Z,100638.91
2022-11-05T05:55:46.231Z,100645.03
2022-11-05T05:57:49.373Z,100642.44
2022-11-05T05:59:52.336Z,100645.03
2022-11-05T06:01:55.344Z,100654.63
2022-11-05T06:03:59.883Z,100652.84
2022-11-05T06:06:03.739Z,100654.63
2022-11-05T06:08:07.246Z,100652.84
2022-11-05T06:10:10.888Z,100658.06
2022-11-05T06:12:14.039Z,100658.00
2022-11-05T06:14:17.056Z,100664.97
2022-11-05T06:16:21.435Z,100666.69
2022-11-05T06:18:24.410Z,100660.59
2022-11-05T06:20:28.721Z,100663.16
2022-11-05T06:22:31.745Z,100668.44
2022-11-05T06:24:34.886Z,100665.88
2022-11-05T06:26:42.717Z,100667.59
2022-11-05T06:28:46.002Z,100673.75
2022-11-05T06:30:51.942Z,100682.41
2022-11-05T06:32:55.262Z,100684.16
2022-11-05T06:34:58.272Z,100692.00
2022-11-05T06:37:02.917Z,100687.63
2022-11-05T06:39:05.862Z,100694.56
2022-11-05T06:41:10.230Z,100698.94
2022-11-05T06:43:14.153Z,100693.59
2022-11-05T06:45:17.401Z,100698.16
2022-11-05T06:47:20.832Z,100687.50
2022-11-05T06:49:24.626Z,100704.94
2022-11-05T06:51:27.496Z,100695.25
2022-11-05T06:53:32.468Z,100698.84
2022-11-05T06:55:35.537Z,100712.75
2022-11-05T06:57:39.273Z,100710.00
2022-11-05T06:59:42.704Z,100711.69
2022-11-05T07:01:45.700Z,100712.50
2022-11-05T07:03:49.670Z,100708.91
2022-11-05T07:05:54.634Z,100717.66
2022-11-05T07:07:57.565Z,100718.50
2022-11-05T07:10:02.042Z,100715.84
2022-11-05T07:12:05.265Z,100725.38
2022-11-05T07:14:08.772Z,100730.59
2022-11-05T07:16:12.404Z,100720.91
2022-11-05T07:18:15.581Z,100725.94
2022-11-05T07:20:18.747Z,100732.00
2022-11-05T07:22:21.783Z,100728.66
2022-11-05T07:24:24.659Z,100733.66
2022-11-05T07:26:34.258Z,100738.78
2022-11-05T07:28:37.695Z,100736.84
2022-11-05T07:30:40.981Z,100738.28
2022-11-05T07:32:43.918Z,100741.50
2022-11-05T07:34:46.853Z,100743.69
2022-11-05T07:36:49.937Z,100743.44
2022-11-05T07:39:16.046Z,100745.88
2022-11-05T07:41:18.906Z,100750.16
2022-11-05T07:43:23.219Z,100744.53
2022-11-05T07:45:27.489Z,100740.97
2022-11-05T07:47:32.160Z,100749.13
2022-11-05T07:49:35.000Z,100743.59
2022-11-05T07:51:37.978Z,100737.94
2022-11-05T07:53:45.052Z,100737.78
2022-11-05T07:55:48.763Z,100743.25
2022-11-05T07:57:54.891Z,100735.91
2022-11-05T07:59:59.149Z,100740.19
2022-11-05T08:02:02.346Z,100735.09
2022-11-05T08:04:05.862Z,100738.00
2022-11-05T08:06:08.807Z,100733.81
2022-11-05T08:08:13.182Z,100736.97
2022-11-05T08:10:16.424Z,100742.00
2022-11-05T08:12:21.116Z,100738.66
2022-11-05T08:14:24.164Z,100741.75
2022-11-05T08:16:28.405Z,100735.84
2022-11-05T08:18:32.403Z,100739.56
2022-11-05T08:20:35.951Z,100739.47
2022-11-05T08:22:43.878Z,100745.69
2022-11-05T08:24:46.771Z,100746.63
2022-11-05T08:26:49.695Z,100740.41
2022-11-05T08:28:52.652Z,100738.06
2022-11-05T08:30:57.032Z,100732.78
2022-11-05T08:33:02.808Z,100730.25
2022-11-05T08:35:06.607Z,100739.31
2022-11-05T08:37:09.521Z,100735.41
2022-11-05T08:39:16.836Z,100737.88
2022-11-05T08:41:20.136Z,100732.19
2022-11-05T08:43:23.445Z,100726.47
2022-11-05T08:45:26.598Z,100736.91
2022-11-05T08:47:30.436Z,100733.06
2022-11-05T08:49:34.880Z,100736.28
2022-11-05T08:51:37.766Z,100730.94
2022-11-05T08:53:40.737Z,100737.59
2022-11-05T08:55:47.529Z,100737.19
2022-11-05T08:57:56.599Z,100732.84
2022-11-05T08:59:59.544Z,100726.53
2022-11-05T09:02:02.479Z,100732.63
2022-11-05T09:04:06.235Z,100726.19
2022-11-05T09:06:13.196Z,100731.75
2022-11-05T09:08:17.732Z,100728.47
2022-11-05T09:10:20.767Z,100728.22
2022-11-05T09:12:23.895Z,100730.22
2022-11-05T09:14:27.552Z,100728.53
2022-11-05T09:16:34.164Z,100736.00
2022-11-05T09:18:38.934Z,100739.19
2022-11-05T09:20:42.255Z,100739.59
2022-11-05T09:22:47.420Z,100746.16
2022-11-05T09:24:50.309Z,100738.19
2022-11-05T09:26:53.390Z,100738.59
2022-11-05T09:28:56.815Z,100736.38
2022-11-05T09:31:00.574Z,100736.38
2022-11-05T09:33:03.456Z,100735.88
2022-11-05T09:35:07.363Z,100721.50
2022-11-05T09:37:11.372Z,100725.50
2022-11-05T09:39:15.757Z,100731.56
2022-11-05T09:41:24.676Z,100736.06
2022-11-05T09:43:32.727Z,100735.94
2022-11-05T09:45:37.370Z,100734.44
2022-11-05T09:47:43.268Z,100734.22
2022-11-05T09:49:50.277Z,100728.63
2022-11-05T09:51:54.754Z,100729.63
2022-11-05T09:53:59.750Z,100731.00
2022-11-05T09:56:06.413Z,100728.44
2022-11-05T09:58:16.258Z,100726.63
2022-11-05T10:00:20.986Z,100727.41
2022-11-05T10:02:26.724Z,100725.00
2022-11-05T10:04:31.319Z,100728.38
2022-11-05T10:06:35.241Z,100725.88
2022-11-05T10:08:42.804Z,100721.97
2022-11-05T10:10:56.176Z,100723.44
2022-11-05T10:13:04.267Z,100717.41
2022-11-05T10:15:13.896Z,100732.53
2022-11-05T10:17:22.331Z,100726.31
2022-11-05T10:19:27.736Z,100735.63
2022-11-05T10:21:59.404Z,100723.59
2022-11-05T10:23:54.042Z,100726.31
2022-11-05T10:25:59.161Z,100730.25
2022-11-05T10:28:06.871Z,100728.81
2022-11-05T10:30:15.887Z,100729.34
2022-11-05T10:32:27.904Z,100722.22
2022-11-05T10:34:33.663Z,100724.84
2022-11-05T10:36:40.390Z,100729.19
2022-11-05T10:38:43.373Z,100725.31
2022-11-05T10:40:54.887Z,100732.63
2022-11-05T10:43:05.266Z,100723.69
2022-11-05T10:45:18.543Z,100726.59
2022-11-05T10:47:40.604Z,100728.31
2022-11-05T10:49:59.928Z,100728.78
2022-11-05T10:52:21.681Z,100729.31
2022-11-05T10:54:27.848Z,100728.16
2022-11-05T10:56:37.665Z,100732.44
2022-11-05T10:58:55.571Z,100730.72
2022-11-05T11:01:06.103Z,100723.13
2022-11-05T11:03:31.903Z,100727.88
2022-11-05T11:05:37.534Z,100722.97
2022-11-05T11:07:41.731Z,100724.88
2022-11-05T11:09:48.433Z,100727.44
2022-11-05T11:12:03.034Z,100731.09
2022-11-05T11:14:20.922Z,100729.38
2022-11-05T11:16:25.449Z,100724.66
2022-11-05T11:18:37.331Z,100722.50
2022-11-05T11:20:45.997Z,100730.22
2022-11-05T11:23:04.113Z,100718.53
2022-11-05T11:25:23.765Z,100706.34
2022-11-05T11:27:29.717Z,100717.81
2022-11-05T11:29:43.955Z,100724.63
2022-11-05T11:31:49.749Z,100711.41
2022-11-05T11:33:58.317Z,100726.78
2022-11-05T11:36:01.614Z,100726.44
2022-11-05T11:38:04.956Z,100729.75
2022-11-05T11:40:16.724Z,100723.03
2022-11-05T11:42:23.908Z,100717.16
2022-11-05T11:44:30.097Z,100734.78
2022-11-05T11:46:35.572Z,100728.00
2022-11-05T11:48:41.814Z,100728.00
2022-11-05T11:50:46.177Z,100731.41
2022-11-05T11:52:49.110Z,100734.56
2022-11-05T11:54:53.068Z,100731.25
2022-11-05T11:56:56.139Z,100731.09
2022-11-05T11:59:03.179Z,100734.53
2022-11-05T12:01:18.209Z,100730.50
2022-11-05T12:03:26.189Z,100726.94
2022-11-05T12:05:36.220Z,100740.06
2022-11-05T12:07:48.722Z,100727.38
2022-11-05T12:10:02.120Z,100743.66
2022-11-05T12:12:10.975Z,100731.53
2022-11-05T12:14:24.106Z,100730.91
2022-11-05T12:16:39.254Z,100732.47
2022-11-05T12:18:49.962Z,100732.56
2022-11-05T12:21:05.857Z,100724.81
2022-11-05T12:23:36.092Z,100740.13
2022-11-05T12:25:44.150Z,100734.44
2022-11-05T12:28:15.918Z,100729.31
2022-11-05T12:30:21.055Z,100725.75
2022-11-05T12:32:35.024Z,100721.25
2022-11-05T12:34:49.686Z,100721.75
2022-11-05T12:37:15.315Z,100726.88
2022-11-05T12:39:35.630Z,100712.78
2022-11-05T12:41:46.978Z,100713.13
2022-11-05T12:44:01.495Z,100713.28
2022-11-05T12:46:13.463Z,100729.63
2022-11-05T12:48:36.931Z,100718.03
2022-11-05T12:50:45.389Z,100717.72
2022-11-05T12:53:03.177Z,100716.06
2022-11-05T12:55:09.576Z,100714.91
2022-11-05T12:57:14.722Z,100717.41
2022-11-05T12:59:22.618Z,100715.31
2022-11-05T13:01:32.373Z,100707.53
2022-11-05T13:03:41.220Z,100717.50
2022-11-05T13:05:49.177Z,100722.28
2022-11-05T13:07:58.962Z,100724.53
2022-11-05T13:10:05.561Z,100721.75
2022-11-05T13:12:13.368Z,100709.41
2022-11-05T13:14:19.866Z,100706.31
2022-11-05T13:16:27.423Z,100690.59
2022-11-05T13:18:35.560Z,100701.06
2022-11-05T13:20:40.673Z,100701.91
2022-11-05T13:22:49.289Z,100699.28
2022-11-05T13:24:55.384Z,100702.13
2022-11-05T13:27:02.132Z,100705.03
2022-11-05T13:29:08.416Z,100700.69
2022-11-05T13:31:14.993Z,100698.16
2022-11-05T13:33:22.509Z,100703.13
2022-11-05T13:35:29.813Z,100695.75
2022-11-05T13:37:53.391Z,100704.38
2022-11-05T13:40:00.533Z,100698.53
2022-11-05T13:42:45.246Z,100698.53
2022-11-05T13:45:04.084Z,100694.22
2022-11-05T13:47:21.493Z,100691.66
2022-11-05T13:49:42.711Z,100698.16
2022-11-05T13:51:59.542Z,100698.03
2022-11-05T13:54:18.937Z,100694.19
2022-11-05T13:56:33.431Z,100692.97
2022-11-05T13:58:50.306Z,100704.72
2022-11-05T14:01:03.503Z,100693.56
2022-11-05T14:03:08.330Z,100687.59
2022-11-05T14:05:29.061Z,100693.84
2022-11-05T14:07:34.722Z,100687.94
2022-11-05T14:09:41.568Z,100685.97
2022-11-05T14:11:53.118Z,100685.31
2022-11-05T14:13:58.461Z,100680.22
2022-11-05T14:16:05.540Z,100678.19
2022-11-05T14:18:39.217Z,100680.69
2022-11-05T14:20:59.390Z,100686.28
2022-11-05T14:23:41.996Z,100690.72
2022-11-05T14:25:58.599Z,100676.63
2022-11-05T14:28:06.052Z,100679.78
2022-11-05T14:30:41.239Z,100676.88
2022-11-05T14:32:48.642Z,100677.94
2022-11-05T14:34:57.483Z,100694.03
2022-11-05T14:37:15.391Z,100688.03
2022-11-05T14:39:21.781Z,100690.13
2022-11-05T14:41:24.939Z,100685.38
2022-11-05T14:43:32.379Z,100687.34
2022-11-05T14:45:37.220Z,100680.22
2022-11-05T14:47:43.076Z,100685.81
2022-11-05T14:49:53.212Z,100682.25
2022-11-05T14:51:57.603Z,100666.50
2022-11-05T14:54:03.380Z,100672.28
2022-11-05T14:56:10.710Z,100674.13
2022-11-05T14:58:30.281Z,100664.41
2022-11-05T15:00:51.264Z,100660.34
2022-11-05T15:02:57.923Z,100650.03
2022-11-05T15:05:37.708Z,100656.78
2022-11-05T15:07:40.988Z,100663.03
2022-11-05T15:09:46.692Z,100654.63
2022-11-05T15:12:02.524Z,100653.78
2022-11-05T15:14:12.028Z,100659.78
2022-11-05T15:16:20.763Z,100658.13
2022-11-05T15:18:29.405Z,100667.19
2022-11-05T15:20:40.233Z,100671.66
2022-11-05T15:22:45.967Z,100673.31
2022-11-05T15:24:48.982Z,100667.72
2022-11-05T15:26:57.739Z,100679.34
2022-11-05T15:29:00.773Z,100680.22
2022-11-05T15:31:07.587Z,100679.53
2022-11-05T15:33:16.207Z,100679.66
2022-11-05T15:35:26.872Z,100676.47
2022-11-05T15:37:30.006Z,100673.19
2022-11-05T15:39:39.676Z,100672.94
2022-11-05T15:41:42.826Z,100686.19
2022-11-05T15:43:48.016Z,100687.09
2022-11-05T15:46:02.769Z,100680.03
2022-11-05T15:48:15.581Z,100682.63
2022-11-05T15:50:18.606Z,100681.75
2022-11-05T15:52:24.114Z,100681.13
2022-11-05T15:54:31.120Z,100689.91
2022-11-05T15:56:35.709Z,100692.50
2022-11-05T15:58:45.681Z,100683.19
2022-11-05T16:00:49.728Z,100695.81
2022-11-05T16:02:55.576Z,100689.56
2022-11-05T16:05:00.511Z,100685.03
2022-11-05T16:07:09.574Z,100693.28
2022-11-05T16:09:22.642Z,100693.97
2022-11-05T16:11:27.444Z,100699.25
2022-11-05T16:13:34.155Z,100694.09
2022-11-05T16:15:37.235Z,100699.25
2022-11-05T16:17:48.342Z,100695.91
2022-11-05T16:19:52.264Z,100692.53
2022-11-05T16:21:57.043Z,100694.44
2022-11-05T16:24:01.082Z,100694.31
2022-11-05T16:26:04.181Z,100694.53
2022-11-05T16:28:19.089Z,100692.88
2022-11-05T16:30:22.846Z,100691.19
2022-11-05T16:32:30.808Z,100687.53
2022-11-05T16:34:38.979Z,100695.50
2022-11-05T16:36:42.140Z,100703.03
2022-11-05T16:38:46.662Z,100683.75
2022-11-05T16:40:49.572Z,100680.88
2022-11-05T16:42:53.799Z,100681.75
2022-11-05T16:44:56.738Z,100683.44
2022-11-05T16:47:00.345Z,100683.94
2022-11-05T16:49:03.637Z,100679.47
2022-11-05T16:51:06.912Z,100687.53
2022-11-05T16:53:09.889Z,100687.69
2022-11-05T16:55:14.985Z,100692.84
2022-11-05T16:57:24.534Z,100680.31
2022-11-05T16:59:28.021Z,100692.56
2022-11-05T17:01:31.727Z,100697.81
2022-11-05T17:03:35.416Z,100688.09
2022-11-05T17:05:39.097Z,100686.50
2022-11-05T17:07:42.057Z,100693.22
2022-11-05T17:09:48.962Z,100680.97
2022-11-05T17:11:54.392Z,100684.53
2022-11-05T17:13:57.792Z,100680.91
2022-11-05T17:16:00.885Z,100678.09
2022-11-05T17:18:05.408Z,100693.28
2022-11-05T17:20:11.928Z,100681.84
2022-11-05T17:22:15.058Z,100687.09
2022-11-05T17:24:18.122Z,100681.91
2022-11-05T17:26:21.062Z,100686.34
2022-11-05T17:28:26.008Z,100686.19
2022-11-05T17:30:30.452Z,100688.69
2022-11-05T17:32:33.783Z,100677.72
2022-11-05T17:34:37.242Z,100687.25
2022-11-05T17:36:40.401Z,100684.56
2022-11-05T17:38:43.756Z,100683.00
2022-11-05T17:40:46.838Z,100678.78
2022-11-05T17:42:50.296Z,100682.13
2022-11-05T17:44:54.623Z,100689.22
2022-11-05T17:46:57.829Z,100682.34
2022-11-05T17:49:00.982Z,100669.16
2022-11-05T17:51:04.288Z,100691.06
2022-11-05T17:53:07.174Z,100678.56
2022-11-05T17:55:17.236Z,100678.69
2022-11-05T17:57:20.377Z,100675.34
2022-11-05T17:59:23.299Z,100673.53
2022-11-05T18:01:29.896Z,100677.28
2022-11-05T18:03:33.035Z,100676.28
2022-11-05T18:05:36.398Z,100673.81
2022-11-05T18:07:39.716Z,100675.41
2022-11-05T18:09:43.330Z,100696.38
2022-11-05T18:11:46.336Z,100679.72
2022-11-05T18:13:49.293Z,100694.72
2022-11-05T18:15:53.821Z,100679.66
2022-11-05T18:17:58.127Z,100676.16
2022-11-05T18:20:01.047Z,100682.34
2022-11-05T18:22:03.991Z,100679.84
2022-11-05T18:24:08.491Z,100684.06
2022-11-05T18:26:12.094Z,100685.28
2022-11-05T18:28:15.118Z,100685.13
2022-11-05T18:30:20.925Z,100694.06
2022-11-05T18:32:24.774Z,100702.00
2022-11-05T18:34:29.321Z,100692.38
2022-11-05T18:36:33.111Z,100684.59
2022-11-05T18:38:37.086Z,100699.53
2022-11-05T18:40:40.238Z,100692.50
2022-11-05T18:42:43.179Z,100686.41
2022-11-05T18:44:46.217Z,100699.44
2022-11-05T18:46:58.133Z,100687.16
2022-11-05T18:49:02.617Z,100687.16
2022-11-05T18:51:10.645Z,100690.50
2022-11-05T18:53:13.713Z,100688.69
2022-11-05T18:55:16.883Z,100681.91
2022-11-05T18:57:19.899Z,100684.38
2022-11-05T18:59:40.082Z,100687.28
2022-11-05T19:01:43.520Z,100685.28
2022-11-05T19:03:46.945Z,100688.16
2022-11-05T19:05:50.700Z,100682.84
2022-11-05T19:07:55.193Z,100682.81
2022-11-05T19:09:58.069Z,100682.72
2022-11-05T19:12:01.087Z,100677.69
2022-11-05T19:14:03.978Z,100679.44
2022-11-05T19:16:09.010Z,100687.47
2022-11-05T19:18:12.374Z,100689.69
2022-11-05T19:20:15.473Z,100683.81
2022-11-05T19:22:22.098Z,100678.59
2022-11-05T19:24:26.675Z,100677.03
2022-11-05T19:26:30.180Z,100682.97
2022-11-05T19:28:34.898Z,100700.81
2022-11-05T19:30:38.992Z,100695.38
2022-11-05T19:32:43.271Z,100689.03
2022-11-05T19:34:46.158Z,100697.91
2022-11-05T19:36:49.192Z,100704.09
2022-11-05T19:38:57.433Z,100704.91
2022-11-05T19:41:05.203Z,100700.53
2022-11-05T19:43:08.107Z,100711.00
2022-11-05T19:45:30.845Z,100705.16
2022-11-05T19:47:34.941Z,100709.13
2022-11-05T19:49:38.044Z,100714.47
2022-11-05T19:51:41.072Z,100700.41
2022-11-05T19:53:45.362Z,100713.88
2022-11-05T19:55:48.441Z,100709.44
2022-11-05T19:57:53.323Z,100701.69
2022-11-05T19:59:56.667Z,100697.13
2022-11-05T20:01:59.661Z,100698.94
2022-11-05T20:04:03.650Z,100688.13
2022-11-05T20:06:08.905Z,100692.56
2022-11-05T20:08:12.064Z,100690.91
2022-11-05T20:10:15.224Z,100699.00
2022-11-05T20:12:18.138Z,100707.06
2022-11-05T20:14:22.769Z,100706.03
2022-11-05T20:16:27.979Z,100703.16
2022-11-05T20:18:32.529Z,100693.00
2022-11-05T20:20:35.458Z,100680.66
2022-11-05T20:22:38.820Z,100679.06
2022-11-05T20:24:41.771Z,100699.28
2022-11-05T20:26:44.657Z,100692.28
2022-11-05T20:28:47.610Z,100707.25
2022-11-05T20:30:57.236Z,100695.66
2022-11-05T20:33:00.172Z,100705.31
2022-11-05T20:35:03.139Z,100698.34
2022-11-05T20:37:06.459Z,100701.75
2022-11-05T20:39:09.423Z,100703.59
2022-11-05T20:41:14.496Z,100714.91
2022-11-05T20:43:18.148Z,100710.53
2022-11-05T20:45:21.435Z,100711.53
2022-11-05T20:47:26.674Z,100709.47
2022-11-05T20:49:29.938Z,100711.31
2022-11-05T20:51:32.801Z,100706.19
2022-11-05T20:53:36.383Z,100700.91
2022-11-05T20:55:43.229Z,100690.56
2022-11-05T20:57:47.989Z,100689.94
2022-11-05T20:59:50.953Z,100682.97
2022-11-05T21:01:55.890Z,100680.31
2022-11-05T21:04:01.597Z,100686.50
2022-11-05T21:06:06.390Z,100684.66
2022-11-05T21:08:10.053Z,100687.31
2022-11-05T21:10:13.540Z,100688.13
2022-11-05T21:12:18.441Z,100689.06
2022-11-05T21:14:23.235Z,100692.41
2022-11-05T21:16:26.219Z,100698.34
2022-11-05T21:18:31.014Z,100709.72
2022-11-05T21:20:35.634Z,100719.16
2022-11-05T21:22:38.557Z,100733.25
2022-11-05T21:24:41.518Z,100733.09
2022-11-05T21:26:44.398Z,100732.28
2022-11-05T21:28:47.237Z,100723.44
2022-11-05T21:30:50.479Z,100731.41
2022-11-05T21:32:53.467Z,100718.44
2022-11-05T21:34:56.421Z,100718.22
2022-11-05T21:37:03.251Z,100713.00
2022-11-05T21:39:10.548Z,100720.25
2022-11-05T21:41:16.294Z,100708.06
2022-11-05T21:43:19.198Z,100702.63
2022-11-05T21:45:22.178Z,100695.81
2022-11-05T21:47:25.198Z,100697.69
2022-11-05T21:49:28.903Z,100697.63
2022-11-05T21:51:49.220Z,100691.59
2022-11-05T21:54:10.923Z,100696.03
2022-11-05T21:56:37.356Z,100668.28
2022-11-05T21:59:00.827Z,100657.97
2022-11-05T22:01:03.974Z,100657.97
2022-11-05T22:03:06.910Z,100648.28
2022-11-05T22:05:10.165Z,100661.31
2022-11-05T22:07:15.681Z,100663.22
2022-11-05T22:09:25.150Z,100669.50
2022-11-05T22:11:28.079Z,100659.97
2022-11-05T22:13:30.984Z,100655.47
2022-11-05T22:15:33.932Z,100663.47
2022-11-05T22:17:36.829Z,100666.19
2022-11-05T22:19:41.059Z,100660.66
2022-11-05T22:21:43.994Z,100658.25
2022-11-05T22:23:47.558Z,100670.69
2022-11-05T22:25:51.955Z,100659.00
2022-11-05T22:27:55.017Z,100658.97
2022-11-05T22:29:57.935Z,100656.59
2022-11-05T22:32:03.491Z,100655.75
2022-11-05T22:34:07.418Z,100654.78
2022-11-05T22:36:11.099Z,100658.50
2022-11-05T22:38:16.287Z,100663.09
2022-11-05T22:40:22.213Z,100651.91
2022-11-05T22:42:28.351Z,100650.00
2022-11-05T22:44:31.274Z,100644.94
2022-11-05T22:46:34.337Z,100651.03
2022-11-05T22:48:37.953Z,100649.22
2022-11-05T22:50:42.076Z,100651.03
2022-11-05T22:52:44.941Z,100648.28
2022-11-05T22:54:48.484Z,100640.59
2022-11-05T22:56:53.055Z,100654.56
2022-11-05T22:58:58.022Z,100654.44
2022-11-05T23:01:01.603Z,100640.50
2022-11-05T23:03:04.820Z,100644.06
2022-11-05T23:05:08.293Z,100637.16
2022-11-05T23:07:28.966Z,100621.47
2022-11-05T23:09:51.376Z,100624.25
2022-11-05T23:11:57.325Z,100629.56
2022-11-05T23:14:01.639Z,100626.25
2022-11-05T23:16:22.361Z,100629.50
2022-11-05T23:18:42.950Z,100635.91
2022-11-05T23:21:04.463Z,100638.84
2022-11-05T23:23:28.680Z,100640.41
2022-11-05T23:25:31.714Z,100634.47
2022-11-05T23:27:38.649Z,100637.06
2022-11-05T23:29:42.932Z,100640.75
2022-11-05T23:32:05.102Z,100638.31
2022-11-05T23:34:10.563Z,100630.50
2022-11-05T23:36:34.086Z,100641.13
2022-11-05T23:38:48.643Z,100634.97
2022-11-05T23:41:14.563Z,100638.59
2022-11-05T23:43:35.697Z,100638.00
2022-11-05T23:45:58.572Z,100636.22
2022-11-05T23:48:19.341Z,100637.16
2022-11-05T23:50:25.626Z,100633.72
2022-11-05T23:52:28.474Z,100628.41
2022-11-05T23:54:31.322Z,100621.44
2022-11-05T23:56:38.317Z,100622.22
2022-11-05T23:58:42.394Z,100608.28
